sensor_id;sensor_type;location;lat;lon;timestamp;P1;durP1;ratioP1;P2;durP2;ratioP2
23101;SDS011;11720;51.214;22.574;2023-05-10T00:00:07;8.07;;;2.87;;
23101;SDS011;11720;51.214;22.574;2023-05-10T00:02:34;5.70;;;2.83;;
23101;SDS011;11720;51.214;22.574;2023-05-10T00:05:00;9.30;;;3.80;;
23101;SDS011;11720;51.214;22.574;2023-05-10T00:07:26;11.37;;;3.20;;
23101;SDS011;11720;51.214;22.574;2023-05-10T00:09:52;3.23;;;2.53;;
23101;SDS011;11720;51.214;22.574;2023-05-10T00:12:18;2.77;;;2.40;;
23101;SDS011;11720;51.214;22.574;2023-05-10T00:14:44;4.73;;;2.87;;
23101;SDS011;11720;51.214;22.574;2023-05-10T00:17:10;4.13;;;2.53;;
23101;SDS011;11720;51.214;22.574;2023-05-10T00:19:36;4.10;;;2.57;;
23101;SDS011;11720;51.214;22.574;2023-05-10T00:22:02;6.73;;;3.03;;
23101;SDS011;11720;51.214;22.574;2023-05-10T00:24:28;5.30;;;3.10;;
23101;SDS011;11720;51.214;22.574;2023-05-10T00:26:54;6.87;;;2.67;;
23101;SDS011;11720;51.214;22.574;2023-05-10T00:29:19;3.70;;;2.40;;
23101;SDS011;11720;51.214;22.574;2023-05-10T00:31:45;3.63;;;2.13;;
23101;SDS011;11720;51.214;22.574;2023-05-10T00:34:11;4.90;;;2.40;;
23101;SDS011;11720;51.214;22.574;2023-05-10T00:36:37;3.03;;;2.37;;
23101;SDS011;11720;51.214;22.574;2023-05-10T00:39:03;5.57;;;2.97;;
23101;SDS011;11720;51.214;22.574;2023-05-10T00:41:29;5.20;;;2.70;;
23101;SDS011;11720;51.214;22.574;2023-05-10T00:43:58;4.13;;;2.20;;
23101;SDS011;11720;51.214;22.574;2023-05-10T00:46:25;5.30;;;3.00;;
23101;SDS011;11720;51.214;22.574;2023-05-10T00:48:51;2.47;;;1.80;;
23101;SDS011;11720;51.214;22.574;2023-05-10T00:51:18;5.70;;;2.73;;
23101;SDS011;11720;51.214;22.574;2023-05-10T00:53:45;2.57;;;2.03;;
23101;SDS011;11720;51.214;22.574;2023-05-10T00:56:11;3.60;;;2.27;;
23101;SDS011;11720;51.214;22.574;2023-05-10T00:58:37;2.67;;;1.83;;
23101;SDS011;11720;51.214;22.574;2023-05-10T01:01:04;2.53;;;2.30;;
23101;SDS011;11720;51.214;22.574;2023-05-10T01:03:31;4.37;;;2.60;;
23101;SDS011;11720;51.214;22.574;2023-05-10T01:05:57;3.97;;;2.20;;
23101;SDS011;11720;51.214;22.574;2023-05-10T01:08:24;4.47;;;2.50;;
23101;SDS011;11720;51.214;22.574;2023-05-10T01:10:50;4.50;;;2.23;;
23101;SDS011;11720;51.214;22.574;2023-05-10T01:13:20;5.67;;;2.87;;
23101;SDS011;11720;51.214;22.574;2023-05-10T01:16:02;9.20;;;2.70;;
23101;SDS011;11720;51.214;22.574;2023-05-10T01:18:29;7.63;;;2.50;;
23101;SDS011;11720;51.214;22.574;2023-05-10T01:21:29;5.73;;;2.53;;
23101;SDS011;11720;51.214;22.574;2023-05-10T01:29:12;3.80;;;2.60;;
23101;SDS011;11720;51.214;22.574;2023-05-10T01:31:56;12.10;;;6.13;;
23101;SDS011;11720;51.214;22.574;2023-05-10T01:40:15;6.47;;;3.30;;
23101;SDS011;11720;51.214;22.574;2023-05-10T01:42:57;3.50;;;2.20;;
23101;SDS011;11720;51.214;22.574;2023-05-10T01:45:37;4.77;;;2.67;;
23101;SDS011;11720;51.214;22.574;2023-05-10T01:48:19;3.03;;;2.40;;
23101;SDS011;11720;51.214;22.574;2023-05-10T01:50:47;4.23;;;2.50;;
23101;SDS011;11720;51.214;22.574;2023-05-10T01:53:17;3.57;;;2.53;;
23101;SDS011;11720;51.214;22.574;2023-05-10T01:55:46;3.00;;;2.33;;
23101;SDS011;11720;51.214;22.574;2023-05-10T01:58:15;5.13;;;2.60;;
23101;SDS011;11720;51.214;22.574;2023-05-10T02:00:45;3.40;;;2.37;;
23101;SDS011;11720;51.214;22.574;2023-05-10T02:03:12;5.53;;;2.20;;
23101;SDS011;11720;51.214;22.574;2023-05-10T02:05:41;4.60;;;2.50;;
23101;SDS011;11720;51.214;22.574;2023-05-10T02:08:09;4.47;;;2.47;;
23101;SDS011;11720;51.214;22.574;2023-05-10T02:10:35;4.57;;;2.63;;
23101;SDS011;11720;51.214;22.574;2023-05-10T02:13:01;3.13;;;2.20;;
23101;SDS011;11720;51.214;22.574;2023-05-10T02:15:28;3.83;;;2.23;;
23101;SDS011;11720;51.214;22.574;2023-05-10T02:17:54;2.67;;;2.13;;
23101;SDS011;11720;51.214;22.574;2023-05-10T02:20:22;3.27;;;2.23;;
23101;SDS011;11720;51.214;22.574;2023-05-10T02:22:50;5.87;;;2.00;;
23101;SDS011;11720;51.214;22.574;2023-05-10T02:25:17;5.60;;;2.73;;
23101;SDS011;11720;51.214;22.574;2023-05-10T02:27:45;4.77;;;2.93;;
23101;SDS011;11720;51.214;22.574;2023-05-10T02:30:12;5.77;;;2.93;;
23101;SDS011;11720;51.214;22.574;2023-05-10T02:32:39;5.43;;;2.30;;
23101;SDS011;11720;51.214;22.574;2023-05-10T02:35:06;4.53;;;2.53;;
23101;SDS011;11720;51.214;22.574;2023-05-10T02:37:35;3.17;;;2.50;;
23101;SDS011;11720;51.214;22.574;2023-05-10T02:40:02;2.87;;;1.63;;
23101;SDS011;11720;51.214;22.574;2023-05-10T02:42:31;3.43;;;2.10;;
23101;SDS011;11720;51.214;22.574;2023-05-10T02:45:00;2.60;;;2.20;;
23101;SDS011;11720;51.214;22.574;2023-05-10T02:47:28;3.37;;;2.47;;
23101;SDS011;11720;51.214;22.574;2023-05-10T02:49:55;6.57;;;2.90;;
23101;SDS011;11720;51.214;22.574;2023-05-10T02:52:28;3.47;;;1.93;;
23101;SDS011;11720;51.214;22.574;2023-05-10T02:55:02;2.10;;;1.80;;
23101;SDS011;11720;51.214;22.574;2023-05-10T02:57:31;4.63;;;1.90;;
23101;SDS011;11720;51.214;22.574;2023-05-10T02:59:59;2.67;;;1.93;;
23101;SDS011;11720;51.214;22.574;2023-05-10T03:02:26;3.97;;;2.47;;
23101;SDS011;11720;51.214;22.574;2023-05-10T03:04:52;2.50;;;1.57;;
23101;SDS011;11720;51.214;22.574;2023-05-10T03:07:18;4.90;;;2.10;;
23101;SDS011;11720;51.214;22.574;2023-05-10T03:09:46;3.70;;;2.10;;
23101;SDS011;11720;51.214;22.574;2023-05-10T03:15:13;4.90;;;2.20;;
23101;SDS011;11720;51.214;22.574;2023-05-10T03:20:46;4.20;;;2.57;;
23101;SDS011;11720;51.214;22.574;2023-05-10T03:23:26;4.23;;;2.27;;
23101;SDS011;11720;51.214;22.574;2023-05-10T03:25:56;3.93;;;2.70;;
23101;SDS011;11720;51.214;22.574;2023-05-10T03:28:22;15.73;;;4.87;;
23101;SDS011;11720;51.214;22.574;2023-05-10T03:30:50;7.80;;;3.57;;
23101;SDS011;11720;51.214;22.574;2023-05-10T03:33:18;10.70;;;2.93;;
23101;SDS011;11720;51.214;22.574;2023-05-10T03:35:45;4.40;;;2.77;;
23101;SDS011;11720;51.214;22.574;2023-05-10T03:38:14;4.90;;;2.23;;
23101;SDS011;11720;51.214;22.574;2023-05-10T03:40:40;4.87;;;2.80;;
23101;SDS011;11720;51.214;22.574;2023-05-10T03:43:06;5.53;;;2.87;;
23101;SDS011;11720;51.214;22.574;2023-05-10T03:45:32;3.07;;;2.63;;
23101;SDS011;11720;51.214;22.574;2023-05-10T03:47:58;3.60;;;2.57;;
23101;SDS011;11720;51.214;22.574;2023-05-10T03:50:24;5.63;;;2.70;;
23101;SDS011;11720;51.214;22.574;2023-05-10T03:52:51;2.80;;;2.40;;
23101;SDS011;11720;51.214;22.574;2023-05-10T03:55:17;14.93;;;2.80;;
23101;SDS011;11720;51.214;22.574;2023-05-10T03:57:43;8.17;;;3.37;;
23101;SDS011;11720;51.214;22.574;2023-05-10T04:00:09;4.30;;;2.50;;
23101;SDS011;11720;51.214;22.574;2023-05-10T04:02:35;4.17;;;2.43;;
23101;SDS011;11720;51.214;22.574;2023-05-10T04:05:01;3.50;;;2.70;;
23101;SDS011;11720;51.214;22.574;2023-05-10T04:07:27;9.23;;;3.17;;
23101;SDS011;11720;51.214;22.574;2023-05-10T04:09:53;4.30;;;2.40;;
23101;SDS011;11720;51.214;22.574;2023-05-10T04:12:19;3.80;;;2.80;;
23101;SDS011;11720;51.214;22.574;2023-05-10T04:14:44;5.43;;;2.47;;
23101;SDS011;11720;51.214;22.574;2023-05-10T04:17:10;4.07;;;2.93;;
23101;SDS011;11720;51.214;22.574;2023-05-10T04:19:36;3.60;;;2.53;;
23101;SDS011;11720;51.214;22.574;2023-05-10T04:22:02;4.93;;;2.73;;
23101;SDS011;11720;51.214;22.574;2023-05-10T04:24:28;7.37;;;2.33;;
23101;SDS011;11720;51.214;22.574;2023-05-10T04:26:54;5.50;;;2.57;;
23101;SDS011;11720;51.214;22.574;2023-05-10T04:29:20;6.50;;;3.17;;
23101;SDS011;11720;51.214;22.574;2023-05-10T04:31:45;3.73;;;2.23;;
23101;SDS011;11720;51.214;22.574;2023-05-10T04:34:11;7.20;;;3.37;;
23101;SDS011;11720;51.214;22.574;2023-05-10T04:36:37;6.50;;;2.27;;
23101;SDS011;11720;51.214;22.574;2023-05-10T04:39:03;10.23;;;2.53;;
23101;SDS011;11720;51.214;22.574;2023-05-10T04:41:29;6.83;;;3.07;;
23101;SDS011;11720;51.214;22.574;2023-05-10T04:43:55;4.07;;;2.23;;
23101;SDS011;11720;51.214;22.574;2023-05-10T04:46:21;4.63;;;2.47;;
23101;SDS011;11720;51.214;22.574;2023-05-10T04:48:47;5.97;;;2.30;;
23101;SDS011;11720;51.214;22.574;2023-05-10T04:51:12;3.27;;;1.97;;
23101;SDS011;11720;51.214;22.574;2023-05-10T04:53:38;5.93;;;2.63;;
23101;SDS011;11720;51.214;22.574;2023-05-10T04:56:04;2.70;;;2.10;;
23101;SDS011;11720;51.214;22.574;2023-05-10T04:58:30;4.17;;;2.90;;
23101;SDS011;11720;51.214;22.574;2023-05-10T05:00:57;4.47;;;2.67;;
23101;SDS011;11720;51.214;22.574;2023-05-10T05:03:29;3.83;;;3.00;;
23101;SDS011;11720;51.214;22.574;2023-05-10T05:05:55;4.07;;;2.20;;
23101;SDS011;11720;51.214;22.574;2023-05-10T05:08:20;3.10;;;2.37;;
23101;SDS011;11720;51.214;22.574;2023-05-10T05:10:46;3.37;;;2.20;;
23101;SDS011;11720;51.214;22.574;2023-05-10T05:13:15;6.17;;;2.40;;
23101;SDS011;11720;51.214;22.574;2023-05-10T05:15:40;3.60;;;2.10;;
23101;SDS011;11720;51.214;22.574;2023-05-10T05:18:06;7.30;;;2.73;;
23101;SDS011;11720;51.214;22.574;2023-05-10T05:20:32;3.37;;;2.30;;
23101;SDS011;11720;51.214;22.574;2023-05-10T05:22:59;4.30;;;2.60;;
23101;SDS011;11720;51.214;22.574;2023-05-10T05:25:25;8.30;;;2.85;;
23101;SDS011;11720;51.214;22.574;2023-05-10T05:27:50;2.38;;;2.05;;
23101;SDS011;11720;51.214;22.574;2023-05-10T05:30:16;9.60;;;2.30;;
23101;SDS011;11720;51.214;22.574;2023-05-10T05:32:42;7.83;;;2.37;;
23101;SDS011;11720;51.214;22.574;2023-05-10T05:35:08;2.57;;;1.93;;
23101;SDS011;11720;51.214;22.574;2023-05-10T05:37:33;3.92;;;2.35;;
23101;SDS011;11720;51.214;22.574;2023-05-10T05:40:00;9.57;;;3.25;;
23101;SDS011;11720;51.214;22.574;2023-05-10T05:42:26;3.25;;;2.20;;
23101;SDS011;11720;51.214;22.574;2023-05-10T05:44:52;3.95;;;2.40;;
23101;SDS011;11720;51.214;22.574;2023-05-10T05:47:18;5.10;;;2.72;;
23101;SDS011;11720;51.214;22.574;2023-05-10T05:49:44;4.15;;;2.45;;
23101;SDS011;11720;51.214;22.574;2023-05-10T05:52:12;9.02;;;2.38;;
23101;SDS011;11720;51.214;22.574;2023-05-10T05:54:38;5.18;;;2.35;;
23101;SDS011;11720;51.214;22.574;2023-05-10T05:57:04;6.20;;;2.63;;
23101;SDS011;11720;51.214;22.574;2023-05-10T05:59:30;7.20;;;3.15;;
23101;SDS011;11720;51.214;22.574;2023-05-10T06:01:56;5.68;;;2.55;;
23101;SDS011;11720;51.214;22.574;2023-05-10T06:04:22;4.85;;;2.80;;
23101;SDS011;11720;51.214;22.574;2023-05-10T06:06:48;4.50;;;2.60;;
23101;SDS011;11720;51.214;22.574;2023-05-10T06:09:13;4.50;;;2.25;;
23101;SDS011;11720;51.214;22.574;2023-05-10T06:11:39;6.20;;;2.53;;
23101;SDS011;11720;51.214;22.574;2023-05-10T06:14:05;3.92;;;2.70;;
23101;SDS011;11720;51.214;22.574;2023-05-10T06:16:32;3.47;;;2.40;;
23101;SDS011;11720;51.214;22.574;2023-05-10T06:18:59;4.10;;;2.30;;
23101;SDS011;11720;51.214;22.574;2023-05-10T06:21:24;2.95;;;2.45;;
23101;SDS011;11720;51.214;22.574;2023-05-10T06:23:50;4.65;;;2.42;;
23101;SDS011;11720;51.214;22.574;2023-05-10T06:26:16;4.38;;;2.42;;
23101;SDS011;11720;51.214;22.574;2023-05-10T06:28:42;4.97;;;2.45;;
23101;SDS011;11720;51.214;22.574;2023-05-10T06:31:08;3.80;;;2.33;;
23101;SDS011;11720;51.214;22.574;2023-05-10T06:33:33;4.57;;;2.42;;
23101;SDS011;11720;51.214;22.574;2023-05-10T06:35:59;2.65;;;2.20;;
23101;SDS011;11720;51.214;22.574;2023-05-10T06:38:25;7.70;;;2.33;;
23101;SDS011;11720;51.214;22.574;2023-05-10T06:40:51;2.78;;;2.22;;
23101;SDS011;11720;51.214;22.574;2023-05-10T06:43:17;3.47;;;2.13;;
23101;SDS011;11720;51.214;22.574;2023-05-10T06:45:43;4.53;;;2.13;;
23101;SDS011;11720;51.214;22.574;2023-05-10T06:48:09;5.72;;;2.08;;
23101;SDS011;11720;51.214;22.574;2023-05-10T06:50:35;4.13;;;2.35;;
23101;SDS011;11720;51.214;22.574;2023-05-10T06:53:01;3.65;;;1.90;;
23101;SDS011;11720;51.214;22.574;2023-05-10T06:55:27;5.47;;;2.53;;
23101;SDS011;11720;51.214;22.574;2023-05-10T06:57:53;3.35;;;1.80;;
23101;SDS011;11720;51.214;22.574;2023-05-10T07:00:19;2.17;;;1.77;;
23101;SDS011;11720;51.214;22.574;2023-05-10T07:02:45;3.92;;;1.60;;
23101;SDS011;11720;51.214;22.574;2023-05-10T07:05:11;3.85;;;1.80;;
23101;SDS011;11720;51.214;22.574;2023-05-10T07:07:38;3.33;;;1.50;;
23101;SDS011;11720;51.214;22.574;2023-05-10T07:10:04;9.35;;;2.22;;
23101;SDS011;11720;51.214;22.574;2023-05-10T07:12:30;3.50;;;2.00;;
23101;SDS011;11720;51.214;22.574;2023-05-10T07:14:56;7.28;;;2.20;;
23101;SDS011;11720;51.214;22.574;2023-05-10T07:17:22;6.72;;;2.55;;
23101;SDS011;11720;51.214;22.574;2023-05-10T07:19:47;6.68;;;2.22;;
23101;SDS011;11720;51.214;22.574;2023-05-10T07:22:13;2.33;;;1.67;;
23101;SDS011;11720;51.214;22.574;2023-05-10T07:24:40;2.25;;;1.58;;
23101;SDS011;11720;51.214;22.574;2023-05-10T07:27:05;4.00;;;2.15;;
23101;SDS011;11720;51.214;22.574;2023-05-10T07:29:32;6.22;;;2.33;;
23101;SDS011;11720;51.214;22.574;2023-05-10T07:31:58;2.10;;;1.50;;
23101;SDS011;11720;51.214;22.574;2023-05-10T07:34:23;4.25;;;1.52;;
23101;SDS011;11720;51.214;22.574;2023-05-10T07:36:50;3.15;;;1.95;;
23101;SDS011;11720;51.214;22.574;2023-05-10T07:39:15;3.95;;;1.67;;
23101;SDS011;11720;51.214;22.574;2023-05-10T07:41:41;5.07;;;2.00;;
23101;SDS011;11720;51.214;22.574;2023-05-10T07:44:08;4.25;;;2.20;;
23101;SDS011;11720;51.214;22.574;2023-05-10T07:46:33;3.42;;;2.45;;
23101;SDS011;11720;51.214;22.574;2023-05-10T07:48:59;3.35;;;1.85;;
23101;SDS011;11720;51.214;22.574;2023-05-10T07:51:25;4.10;;;1.58;;
23101;SDS011;11720;51.214;22.574;2023-05-10T07:53:53;3.58;;;1.40;;
23101;SDS011;11720;51.214;22.574;2023-05-10T07:56:22;4.45;;;1.90;;
23101;SDS011;11720;51.214;22.574;2023-05-10T07:58:49;4.72;;;1.60;;
23101;SDS011;11720;51.214;22.574;2023-05-10T08:01:15;8.32;;;2.33;;
23101;SDS011;11720;51.214;22.574;2023-05-10T08:03:41;5.30;;;2.10;;
23101;SDS011;11720;51.214;22.574;2023-05-10T08:06:07;7.95;;;1.85;;
23101;SDS011;11720;51.214;22.574;2023-05-10T08:08:33;2.55;;;1.45;;
23101;SDS011;11720;51.214;22.574;2023-05-10T08:10:58;1.80;;;1.60;;
23101;SDS011;11720;51.214;22.574;2023-05-10T08:13:24;8.73;;;2.20;;
23101;SDS011;11720;51.214;22.574;2023-05-10T08:15:49;2.45;;;1.65;;
23101;SDS011;11720;51.214;22.574;2023-05-10T08:18:17;3.63;;;1.55;;
23101;SDS011;11720;51.214;22.574;2023-05-10T08:20:44;6.00;;;1.80;;
23101;SDS011;11720;51.214;22.574;2023-05-10T08:23:09;5.35;;;1.48;;
23101;SDS011;11720;51.214;22.574;2023-05-10T08:25:37;3.25;;;1.80;;
23101;SDS011;11720;51.214;22.574;2023-05-10T08:28:02;2.22;;;1.52;;
23101;SDS011;11720;51.214;22.574;2023-05-10T08:30:28;3.92;;;1.52;;
23101;SDS011;11720;51.214;22.574;2023-05-10T08:32:54;8.45;;;1.50;;
23101;SDS011;11720;51.214;22.574;2023-05-10T08:35:20;2.20;;;1.90;;
23101;SDS011;11720;51.214;22.574;2023-05-10T08:37:45;1.70;;;1.50;;
23101;SDS011;11720;51.214;22.574;2023-05-10T08:40:11;2.10;;;1.30;;
23101;SDS011;11720;51.214;22.574;2023-05-10T08:42:39;2.92;;;1.42;;
23101;SDS011;11720;51.214;22.574;2023-05-10T08:45:10;3.13;;;1.60;;
23101;SDS011;11720;51.214;22.574;2023-05-10T08:47:36;2.58;;;1.35;;
23101;SDS011;11720;51.214;22.574;2023-05-10T08:50:04;3.17;;;1.58;;
23101;SDS011;11720;51.214;22.574;2023-05-10T08:52:30;7.85;;;1.60;;
23101;SDS011;11720;51.214;22.574;2023-05-10T08:55:01;3.95;;;1.60;;
23101;SDS011;11720;51.214;22.574;2023-05-10T08:57:27;3.55;;;1.98;;
23101;SDS011;11720;51.214;22.574;2023-05-10T08:59:52;2.58;;;1.10;;
23101;SDS011;11720;51.214;22.574;2023-05-10T09:02:18;2.13;;;1.15;;
23101;SDS011;11720;51.214;22.574;2023-05-10T09:04:46;7.60;;;1.80;;
23101;SDS011;11720;51.214;22.574;2023-05-10T09:07:11;2.28;;;1.45;;
23101;SDS011;11720;51.214;22.574;2023-05-10T09:09:37;2.33;;;1.50;;
23101;SDS011;11720;51.214;22.574;2023-05-10T09:12:03;2.20;;;1.70;;
23101;SDS011;11720;51.214;22.574;2023-05-10T09:14:29;1.92;;;1.70;;
23101;SDS011;11720;51.214;22.574;2023-05-10T09:16:59;3.92;;;1.77;;
23101;SDS011;11720;51.214;22.574;2023-05-10T09:19:25;1.23;;;1.13;;
23101;SDS011;11720;51.214;22.574;2023-05-10T09:21:51;1.23;;;0.95;;
23101;SDS011;11720;51.214;22.574;2023-05-10T09:24:17;2.13;;;1.45;;
23101;SDS011;11720;51.214;22.574;2023-05-10T09:26:46;2.38;;;1.25;;
23101;SDS011;11720;51.214;22.574;2023-05-10T09:29:13;3.70;;;1.50;;
23101;SDS011;11720;51.214;22.574;2023-05-10T09:31:57;2.00;;;1.48;;
23101;SDS011;11720;51.214;22.574;2023-05-10T09:34:30;3.10;;;1.85;;
23101;SDS011;11720;51.214;22.574;2023-05-10T09:36:58;4.53;;;1.63;;
23101;SDS011;11720;51.214;22.574;2023-05-10T09:39:31;2.50;;;1.50;;
23101;SDS011;11720;51.214;22.574;2023-05-10T09:42:02;2.20;;;1.50;;
23101;SDS011;11720;51.214;22.574;2023-05-10T09:44:29;1.65;;;1.40;;
23101;SDS011;11720;51.214;22.574;2023-05-10T09:46:56;1.38;;;1.13;;
23101;SDS011;11720;51.214;22.574;2023-05-10T09:49:22;2.58;;;1.60;;
23101;SDS011;11720;51.214;22.574;2023-05-10T09:51:57;2.75;;;1.40;;
23101;SDS011;11720;51.214;22.574;2023-05-10T09:54:25;2.13;;;1.50;;
23101;SDS011;11720;51.214;22.574;2023-05-10T09:56:51;1.95;;;1.10;;
23101;SDS011;11720;51.214;22.574;2023-05-10T09:59:17;2.40;;;1.30;;
23101;SDS011;11720;51.214;22.574;2023-05-10T10:01:48;3.03;;;1.30;;
23101;SDS011;11720;51.214;22.574;2023-05-10T10:04:15;2.40;;;1.30;;
23101;SDS011;11720;51.214;22.574;2023-05-10T10:06:41;3.30;;;1.40;;
23101;SDS011;11720;51.214;22.574;2023-05-10T10:09:07;1.58;;;1.38;;
23101;SDS011;11720;51.214;22.574;2023-05-10T10:11:36;1.60;;;1.27;;
23101;SDS011;11720;51.214;22.574;2023-05-10T10:14:03;1.88;;;1.20;;
23101;SDS011;11720;51.214;22.574;2023-05-10T10:16:30;2.20;;;1.52;;
23101;SDS011;11720;51.214;22.574;2023-05-10T10:18:56;3.25;;;1.25;;
23101;SDS011;11720;51.214;22.574;2023-05-10T10:21:23;2.10;;;1.50;;
23101;SDS011;11720;51.214;22.574;2023-05-10T10:23:49;1.73;;;1.60;;
23101;SDS011;11720;51.214;22.574;2023-05-10T10:26:17;3.80;;;1.80;;
23101;SDS011;11720;51.214;22.574;2023-05-10T10:28:51;3.35;;;1.58;;
23101;SDS011;11720;51.214;22.574;2023-05-10T10:31:40;2.65;;;1.20;;
23101;SDS011;11720;51.214;22.574;2023-05-10T10:34:28;2.45;;;1.50;;
23101;SDS011;11720;51.214;22.574;2023-05-10T10:36:55;2.65;;;1.50;;
23101;SDS011;11720;51.214;22.574;2023-05-10T10:39:22;2.13;;;1.33;;
23101;SDS011;11720;51.214;22.574;2023-05-10T10:41:53;1.83;;;1.30;;
23101;SDS011;11720;51.214;22.574;2023-05-10T10:52:15;2.55;;;1.30;;
23101;SDS011;11720;51.214;22.574;2023-05-10T10:57:31;1.70;;;1.45;;
23101;SDS011;11720;51.214;22.574;2023-05-10T11:00:22;2.90;;;1.48;;
23101;SDS011;11720;51.214;22.574;2023-05-10T11:02:57;3.72;;;1.42;;
23101;SDS011;11720;51.214;22.574;2023-05-10T11:08:06;4.20;;;1.73;;
23101;SDS011;11720;51.214;22.574;2023-05-10T11:10:35;1.95;;;1.52;;
23101;SDS011;11720;51.214;22.574;2023-05-10T11:13:02;1.70;;;1.30;;
23101;SDS011;11720;51.214;22.574;2023-05-10T11:15:34;1.52;;;1.00;;
23101;SDS011;11720;51.214;22.574;2023-05-10T11:18:18;3.75;;;1.55;;
23101;SDS011;11720;51.214;22.574;2023-05-10T11:20:50;1.83;;;1.38;;
23101;SDS011;11720;51.214;22.574;2023-05-10T11:23:16;2.20;;;1.35;;
23101;SDS011;11720;51.214;22.574;2023-05-10T11:25:43;2.75;;;1.30;;
23101;SDS011;11720;51.214;22.574;2023-05-10T11:28:09;3.00;;;1.50;;
23101;SDS011;11720;51.214;22.574;2023-05-10T11:30:37;1.50;;;1.38;;
23101;SDS011;11720;51.214;22.574;2023-05-10T11:33:04;1.85;;;1.35;;
23101;SDS011;11720;51.214;22.574;2023-05-10T11:35:31;1.90;;;1.30;;
23101;SDS011;11720;51.214;22.574;2023-05-10T11:38:04;2.08;;;1.48;;
23101;SDS011;11720;51.214;22.574;2023-05-10T11:40:31;5.07;;;1.33;;
23101;SDS011;11720;51.214;22.574;2023-05-10T11:42:56;2.08;;;1.23;;
23101;SDS011;11720;51.214;22.574;2023-05-10T11:45:23;1.85;;;1.42;;
23101;SDS011;11720;51.214;22.574;2023-05-10T11:47:49;2.25;;;1.35;;
23101;SDS011;11720;51.214;22.574;2023-05-10T11:50:15;2.25;;;1.40;;
23101;SDS011;11720;51.214;22.574;2023-05-10T11:52:42;1.20;;;1.00;;
23101;SDS011;11720;51.214;22.574;2023-05-10T11:55:07;1.45;;;1.23;;
23101;SDS011;11720;51.214;22.574;2023-05-10T11:57:33;1.35;;;1.25;;
23101;SDS011;11720;51.214;22.574;2023-05-10T11:59:59;1.85;;;1.40;;
23101;SDS011;11720;51.214;22.574;2023-05-10T12:02:25;1.27;;;1.13;;
23101;SDS011;11720;51.214;22.574;2023-05-10T12:04:51;1.58;;;1.33;;
23101;SDS011;11720;51.214;22.574;2023-05-10T12:07:17;2.00;;;1.27;;
23101;SDS011;11720;51.214;22.574;2023-05-10T12:09:43;3.13;;;1.05;;
23101;SDS011;11720;51.214;22.574;2023-05-10T12:12:19;2.10;;;1.50;;
23101;SDS011;11720;51.214;22.574;2023-05-10T12:14:48;1.60;;;1.00;;
23101;SDS011;11720;51.214;22.574;2023-05-10T12:17:15;1.75;;;1.42;;
23101;SDS011;11720;51.214;22.574;2023-05-10T12:19:42;1.52;;;1.40;;
23101;SDS011;11720;51.214;22.574;2023-05-10T12:22:08;4.82;;;1.15;;
23101;SDS011;11720;51.214;22.574;2023-05-10T12:24:36;1.35;;;1.25;;
23101;SDS011;11720;51.214;22.574;2023-05-10T12:27:07;2.63;;;1.38;;
23101;SDS011;11720;51.214;22.574;2023-05-10T12:29:33;1.13;;;1.00;;
23101;SDS011;11720;51.214;22.574;2023-05-10T12:31:59;2.17;;;1.42;;
23101;SDS011;11720;51.214;22.574;2023-05-10T12:34:26;2.35;;;1.70;;
23101;SDS011;11720;51.214;22.574;2023-05-10T12:36:58;2.08;;;1.20;;
23101;SDS011;11720;51.214;22.574;2023-05-10T12:39:24;1.65;;;1.33;;
23101;SDS011;11720;51.214;22.574;2023-05-10T12:41:51;1.55;;;1.27;;
23101;SDS011;11720;51.214;22.574;2023-05-10T12:44:17;1.42;;;1.33;;
23101;SDS011;11720;51.214;22.574;2023-05-10T12:46:43;2.08;;;1.25;;
23101;SDS011;11720;51.214;22.574;2023-05-10T12:49:09;1.30;;;1.20;;
23101;SDS011;11720;51.214;22.574;2023-05-10T12:51:35;1.23;;;1.13;;
23101;SDS011;11720;51.214;22.574;2023-05-10T12:54:02;4.35;;;1.50;;
23101;SDS011;11720;51.214;22.574;2023-05-10T12:56:27;1.40;;;1.27;;
23101;SDS011;11720;51.214;22.574;2023-05-10T12:58:53;1.13;;;1.02;;
23101;SDS011;11720;51.214;22.574;2023-05-10T13:01:19;4.30;;;1.27;;
23101;SDS011;11720;51.214;22.574;2023-05-10T13:03:44;1.92;;;1.08;;
23101;SDS011;11720;51.214;22.574;2023-05-10T13:06:10;2.53;;;1.27;;
23101;SDS011;11720;51.214;22.574;2023-05-10T13:08:36;1.80;;;1.30;;
23101;SDS011;11720;51.214;22.574;2023-05-10T13:11:02;1.30;;;1.20;;
23101;SDS011;11720;51.214;22.574;2023-05-10T13:13:28;1.77;;;1.10;;
23101;SDS011;11720;51.214;22.574;2023-05-10T13:15:54;4.95;;;1.42;;
23101;SDS011;11720;51.214;22.574;2023-05-10T13:18:19;1.13;;;0.90;;
23101;SDS011;11720;51.214;22.574;2023-05-10T13:20:46;2.45;;;1.52;;
23101;SDS011;11720;51.214;22.574;2023-05-10T13:23:11;2.10;;;1.17;;
23101;SDS011;11720;51.214;22.574;2023-05-10T13:25:39;1.60;;;1.00;;
23101;SDS011;11720;51.214;22.574;2023-05-10T13:28:04;3.47;;;1.33;;
23101;SDS011;11720;51.214;22.574;2023-05-10T13:30:31;2.30;;;1.67;;
23101;SDS011;11720;51.214;22.574;2023-05-10T13:32:56;2.45;;;1.30;;
23101;SDS011;11720;51.214;22.574;2023-05-10T13:35:22;2.17;;;1.20;;
23101;SDS011;11720;51.214;22.574;2023-05-10T13:37:50;2.97;;;1.33;;
23101;SDS011;11720;51.214;22.574;2023-05-10T13:40:16;1.00;;;1.00;;
23101;SDS011;11720;51.214;22.574;2023-05-10T13:42:44;3.95;;;1.88;;
23101;SDS011;11720;51.214;22.574;2023-05-10T13:45:10;3.05;;;1.35;;
23101;SDS011;11720;51.214;22.574;2023-05-10T13:47:38;3.40;;;1.40;;
23101;SDS011;11720;51.214;22.574;2023-05-10T13:50:04;1.77;;;1.15;;
23101;SDS011;11720;51.214;22.574;2023-05-10T13:52:30;2.25;;;1.23;;
23101;SDS011;11720;51.214;22.574;2023-05-10T13:54:56;1.50;;;1.17;;
23101;SDS011;11720;51.214;22.574;2023-05-10T13:57:22;1.52;;;1.17;;
23101;SDS011;11720;51.214;22.574;2023-05-10T13:59:49;4.13;;;1.70;;
23101;SDS011;11720;51.214;22.574;2023-05-10T14:02:15;4.30;;;1.33;;
23101;SDS011;11720;51.214;22.574;2023-05-10T14:04:41;2.13;;;1.60;;
23101;SDS011;11720;51.214;22.574;2023-05-10T14:07:06;1.65;;;1.20;;
23101;SDS011;11720;51.214;22.574;2023-05-10T14:09:33;1.35;;;1.10;;
23101;SDS011;11720;51.214;22.574;2023-05-10T14:11:58;1.30;;;1.10;;
23101;SDS011;11720;51.214;22.574;2023-05-10T14:14:24;1.90;;;1.25;;
23101;SDS011;11720;51.214;22.574;2023-05-10T14:16:50;1.45;;;1.33;;
23101;SDS011;11720;51.214;22.574;2023-05-10T14:19:15;1.83;;;1.40;;
23101;SDS011;11720;51.214;22.574;2023-05-10T14:21:42;1.50;;;1.00;;
23101;SDS011;11720;51.214;22.574;2023-05-10T14:24:08;1.23;;;1.13;;
23101;SDS011;11720;51.214;22.574;2023-05-10T14:26:35;1.70;;;1.20;;
23101;SDS011;11720;51.214;22.574;2023-05-10T14:29:01;7.25;;;1.55;;
23101;SDS011;11720;51.214;22.574;2023-05-10T14:31:26;1.50;;;1.30;;
23101;SDS011;11720;51.214;22.574;2023-05-10T14:33:52;3.17;;;1.63;;
23101;SDS011;11720;51.214;22.574;2023-05-10T14:36:18;2.55;;;1.38;;
23101;SDS011;11720;51.214;22.574;2023-05-10T14:38:44;2.90;;;1.40;;
23101;SDS011;11720;51.214;22.574;2023-05-10T14:41:10;5.85;;;1.15;;
23101;SDS011;11720;51.214;22.574;2023-05-10T14:43:39;1.38;;;1.20;;
23101;SDS011;11720;51.214;22.574;2023-05-10T14:46:06;1.55;;;1.08;;
23101;SDS011;11720;51.214;22.574;2023-05-10T14:48:32;2.15;;;1.25;;
23101;SDS011;11720;51.214;22.574;2023-05-10T14:50:57;2.08;;;1.27;;
23101;SDS011;11720;51.214;22.574;2023-05-10T14:53:23;1.42;;;1.10;;
23101;SDS011;11720;51.214;22.574;2023-05-10T14:55:49;1.30;;;1.13;;
23101;SDS011;11720;51.214;22.574;2023-05-10T14:58:14;2.38;;;1.17;;
23101;SDS011;11720;51.214;22.574;2023-05-10T15:00:40;1.60;;;1.10;;
23101;SDS011;11720;51.214;22.574;2023-05-10T15:03:06;1.05;;;0.95;;